• Join FlightAware (Why Join?)
  • Login
  • US Flag 
10:13AM EST


 

Airport Tracker/Info


-or-


 

Live Flight TrackerFlight Track Log ✈ N27XP ✈ 01-Oct-2013 ✈ KIPJ - KSOP

Flight Track Log - Related Links

Times and Time Zones

All times are in EDT time to prevent confusion due to time zone crossing. See the N27XP flight status page for this flight to view local times or setup timezone preferences in your user account.

Time Position Orientation Groundspeed Altitude Reporting Facility
EDT Latitude Longitude Course Direction KTS MPH feet Rate Location/Type
07:12PM 35.5247 -81.0278 87° East 277 319 3,000  Level Atlanta Center
07:12PM 35.5261 -80.9997 87° East 279 321 3,000 1,367 Level Atlanta Center
07:13PM 35.5217 -80.9028 93° East 272 313 4,800 984 Climbing Atlanta Center
07:14PM 35.5131 -80.8086 96° East 279 321 5,000 545 Climbing Atlanta Center
07:15PM 35.4900 -80.7228 108° East 267 307 5,900 942 Climbing Atlanta Center
07:16PM 35.4667 -80.6319 107° East 274 315 6,900 537 Climbing Atlanta Center
07:18PM 35.4403 -80.5158 106° East 290 334 7,100  Climbing Atlanta Center
07:19PM 35.4214 -80.4378 107° East 288 331 6,900 -50 Descending Atlanta Center
07:20PM 35.3972 -80.3267 105° East 291 335 7,000 90 Climbing Atlanta Center
07:22PM 35.3778 -80.2557 109° East  Level FlightAware Approximate
07:29PM 35.3167 -79.9738 90° East  Level FlightAware Approximate
07:30PM 35.3145 -79.9325 99° East  Level FlightAware Approximate
07:31PM 35.3094 -79.8914 99° East  Level FlightAware Approximate
07:32PM 35.3042 -79.8504 99° East  Level FlightAware Approximate
07:33PM 35.2984 -79.8095 105° East  Level FlightAware Approximate
07:34PM 35.2895 -79.7694 105° East  Level FlightAware Approximate
07:35PM 35.2806 -79.7294 105° East  Level FlightAware Approximate
07:36PM 35.2717 -79.6893 105° East  Level FlightAware Approximate
07:37PM 35.2667 -79.6487 90° East  Level FlightAware Approximate
07:38PM 35.2667 -79.6071 90° East  Level FlightAware Approximate
07:39PM 35.2520 -79.5707 121° Southeast  Level FlightAware Approximate
07:40PM 35.2448 -79.5304 100° East  Level FlightAware Approximate
07:41PM 35.2390 -79.4895 100° East  Level FlightAware Approximate
07:42PM 35.2333 -79.4486 90° East  Level FlightAware Approximate
07:43PM 35.2333 -79.4072 90° East  Level FlightAware Approximate
07:44PM 35.2333 -79.3833 90° East  Level FlightAware Approximate
07:45PM 35.2380 -79.3883 90° East  Level Estimated
07:46PM 35.2333 -79.3833 90° East  Level FlightAware Approximate
07:47PM 35.2380 -79.3883 90° East  Level Estimated
07:48PM 35.2333 -79.3833 90° East  Level FlightAware Approximate
07:49PM 35.2380 -79.3883 90° East  Level Estimated
07:50PM 35.2333 -79.3833 90° East  Level FlightAware Approximate
07:51PM 35.2380 -79.3883 90° East  Level Estimated
07:52PM 35.2333 -79.3833 90° East  Level FlightAware Approximate
07:53PM 35.2380 -79.3883 90° East  Level Estimated
07:54PM 35.2333 -79.3833 90° East  Level FlightAware Approximate
07:55PM 35.2380 -79.3883 90° East  Level Estimated
07:56PM 35.2333 -79.3833 90° East  Level FlightAware Approximate
07:57PM 35.2380 -79.3883 90° East  Level Estimated
07:58PM 35.2333 -79.3833 90° East  Level FlightAware Approximate
07:59PM 35.2380 -79.3883 90° East  Level Estimated
08:00PM 35.2333 -79.3833 90° East  Level FlightAware Approximate
08:01PM 35.2380 -79.3883 90° East  Level Estimated
08:02PM 35.2333 -79.3833 90° East  Level FlightAware Approximate
08:03PM 35.2380 -79.3883 90° East  Level Estimated
08:04PM 35.2333 -79.3833 90° East  Level FlightAware Approximate